Observation data for Gail on 04/24/2019      Previous  Date  Next       Current Mesonet Observations  Soil Data  Daily Summary Page  Observations in Plain Language
KGGS 240500Z 33001KT 13/11 A3001 RMK A01 T01300113  RH  092%=      5-min Rain = 0
KGGS 240505Z 08002KT 13/11 A30 RMK A01 T01300113  RH  092%=      5-min Rain = 0
KGGS 240510Z 07010KT 13/11 A2994 RMK A01 T01300112  RH  092%=      5-min Rain = 0.01
KGGS 240515Z 05007G12KT 13/11 A2995 RMK A01 T01300112  RH  092%=      5-min Rain = 0
KGGS 240520Z 02009KT 13/11 A2995 RMK A01 T01300112  RH  092%=      5-min Rain = 0
KGGS 240525Z 02009KT 13/11 A2995 RMK A01 T01290112  RH  092%=      5-min Rain = 0
KGGS 240530Z 03010KT 13/11 A2994 RMK A01 T01290112  RH  092%=      5-min Rain = 0
KGGS 240535Z 03012G17KT 13/11 A2994 RMK A01 T01290111  RH  092%=      5-min Rain = 0
KGGS 240540Z 02011KT 13/11 A2995 RMK A01 T01280111  RH  092%=      5-min Rain = 0
KGGS 240545Z 02009KT 13/11 A2995 RMK A01 T01280110  RH  092%=      5-min Rain = 0
KGGS 240550Z 02008KT 13/11 A2996 RMK A01 T01280110  RH  092%=      5-min Rain = 0
KGGS 240555Z 02009KT 13/11 A2996 RMK A01 T01280110  RH  092%=      5-min Rain = 0
KGGS 240600Z 02009KT 13/11 A2996 RMK A01 T01280110  RH  092%=      5-min Rain = 0
KGGS 240605Z 02008KT 13/11 A2996 RMK A01 T01280109  RH  092%=      5-min Rain = 0
KGGS 240610Z 03007KT 13/11 A2997 RMK A01 T01270109  RH  092%=      5-min Rain = 0
KGGS 240615Z 03008KT 13/11 A2997 RMK A01 T01270109  RH  092%=      5-min Rain = 0
KGGS 240620Z 03008KT 13/11 A2998 RMK A01 T01270109  RH  092%=      5-min Rain = 0
KGGS 240625Z 03007KT 13/11 A2999 RMK A01 T01270109  RH  092%=      5-min Rain = 0
KGGS 240630Z 02007KT 13/11 A2999 RMK A01 T01260109  RH  092%=      5-min Rain = 0
KGGS 240635Z 02007KT 13/11 A2999 RMK A01 T01260108  RH  092%=      5-min Rain = 0
KGGS 240640Z 02007KT 13/11 A2998 RMK A01 T01260108  RH  092%=      5-min Rain = 0
KGGS 240645Z 03006KT 13/11 A2999 RMK A01 T01250108  RH  092%=      5-min Rain = 0
KGGS 240650Z 03006KT 13/11 A30 RMK A01 T01250108  RH  092%=      5-min Rain = 0
KGGS 240655Z 03007KT 13/11 A2999 RMK A01 T01250107  RH  092%=      5-min Rain = 0
KGGS 240700Z 02007KT 13/11 A2999 RMK A01 T01250107  RH  092%=      5-min Rain = 0
KGGS 240705Z 03006KT 13/11 A2999 RMK A01 T01250107  RH  092%=      5-min Rain = 0
KGGS 240710Z 04006KT 13/11 A2999 RMK A01 T01250107  RH  092%=      5-min Rain = 0
KGGS 240715Z 03008KT 13/11 A2998 RMK A01 T01250107  RH  092%=      5-min Rain = 0
KGGS 240720Z 04007KT 13/11 A2998 RMK A01 T01250107  RH  092%=      5-min Rain = 0
KGGS 240725Z 04005KT 13/11 A2999 RMK A01 T01250107  RH  092%=      5-min Rain = 0
KGGS 240730Z 04005KT 12/11 A2999 RMK A01 T01240106  RH  092%=      5-min Rain = 0
KGGS 240735Z 06005KT 12/11 A30 RMK A01 T01240106  RH  092%=      5-min Rain = 0
KGGS 240740Z 05005KT 13/11 A2999 RMK A01 T01250107  RH  092%=      5-min Rain = 0
KGGS 240745Z 04005KT 13/11 A2998 RMK A01 T01250107  RH  092%=      5-min Rain = 0
KGGS 240750Z 04005KT 13/11 A2998 RMK A01 T01250108  RH  092%=      5-min Rain = 0
KGGS 240755Z 05005KT 13/11 A2998 RMK A01 T01250108  RH  092%=      5-min Rain = 0
KGGS 240800Z 04006KT 12/11 A2997 RMK A01 T01240107  RH  092%=      5-min Rain = 0
KGGS 240805Z 03006KT 12/11 A2997 RMK A01 T01240107  RH  092%=      5-min Rain = 0
KGGS 240810Z 03006KT 12/11 A2997 RMK A01 T01240107  RH  092%=      5-min Rain = 0
KGGS 240815Z 02005KT 13/11 A2997 RMK A01 T01250108  RH  092%=      5-min Rain = 0
KGGS 240820Z 03005KT 13/11 A2997 RMK A01 T01250108  RH  093%=      5-min Rain = 0
KGGS 240825Z 01004KT 13/11 A2997 RMK A01 T01250108  RH  093%=      5-min Rain = 0
KGGS 240830Z 01005KT 13/11 A2997 RMK A01 T01250108  RH  093%=      5-min Rain = 0
KGGS 240835Z 01005KT 12/11 A2997 RMK A01 T01240108  RH  093%=      5-min Rain = 0
KGGS 240840Z 01005KT 12/11 A2997 RMK A01 T01240108  RH  093%=      5-min Rain = 0
KGGS 240845Z 36006KT 12/11 A2997 RMK A01 T01240108  RH  093%=      5-min Rain = 0
KGGS 240850Z 35006KT 12/11 A2997 RMK A01 T01230107  RH  093%=      5-min Rain = 0
KGGS 240855Z 00006KT 12/11 A2996 RMK A01 T01220106  RH  093%=      5-min Rain = 0
KGGS 240900Z 01005KT 12/11 A2997 RMK A01 T01220106  RH  093%=      5-min Rain = 0
KGGS 240905Z 01005KT 12/11 A2997 RMK A01 T01210106  RH  093%=      5-min Rain = 0
KGGS 240910Z 01006KT 12/11 A2997 RMK A01 T01210105  RH  093%=      5-min Rain = 0
KGGS 240915Z 00007KT 12/11 A2997 RMK A01 T01210105  RH  093%=      5-min Rain = 0
KGGS 240920Z 01005KT 12/11 A2997 RMK A01 T01200105  RH  093%=      5-min Rain = 0
KGGS 240925Z 01006KT 12/10 A2997 RMK A01 T01200104  RH  093%=      5-min Rain = 0
KGGS 240930Z 01006KT 12/10 A2997 RMK A01 T01200104  RH  093%=      5-min Rain = 0
KGGS 240935Z 01006KT 12/10 A2997 RMK A01 T01190103  RH  093%=      5-min Rain = 0
KGGS 240940Z 00006KT 12/10 A2997 RMK A01 T01180103  RH  093%=      5-min Rain = 0
KGGS 240945Z 00005KT 12/10 A2997 RMK A01 T01180102  RH  093%=      5-min Rain = 0
KGGS 240950Z 00006KT 12/10 A2997 RMK A01 T01190103  RH  093%=      5-min Rain = 0
KGGS 240955Z 01007KT 12/10 A2997 RMK A01 T01200104  RH  093%=      5-min Rain = 0
KGGS 241000Z 01006KT 12/11 A2998 RMK A01 T01200105  RH  093%=      5-min Rain = 0
KGGS 241005Z 01006KT 12/11 A2997 RMK A01 T01210105  RH  093%=      5-min Rain = 0
KGGS 241010Z 01006KT 12/11 A2997 RMK A01 T01210105  RH  093%=      5-min Rain = 0
KGGS 241015Z 01006KT 12/11 A2996 RMK A01 T01220106  RH  093%=      5-min Rain = 0
KGGS 241020Z 02004KT 12/11 A2996 RMK A01 T01220106  RH  093%=      5-min Rain = 0
KGGS 241025Z 03006KT 12/11 A2996 RMK A01 T01220106  RH  093%=      5-min Rain = 0
KGGS 241030Z 02007KT 12/11 A2995 RMK A01 T01220106  RH  093%=      5-min Rain = 0
KGGS 241035Z 02008KT 12/11 A2995 RMK A01 T01220105  RH  093%=      5-min Rain = 0
KGGS 241040Z 02008KT 12/10 A2995 RMK A01 T01210104  RH  092%=      5-min Rain = 0
KGGS 241045Z 02007KT 12/10 A2995 RMK A01 T01210104  RH  092%=      5-min Rain = 0
KGGS 241050Z 02006KT 12/10 A2996 RMK A01 T01210104  RH  092%=      5-min Rain = 0
KGGS 241055Z 02006KT 12/10 A2995 RMK A01 T01210103  RH  092%=      5-min Rain = 0
KGGS 241100Z 02006KT 12/10 A2996 RMK A01 T01210103  RH  092%=      5-min Rain = 0
KGGS 241105Z 02007KT 12/10 A2996 RMK A01 T01210102  RH  091%=      5-min Rain = 0
KGGS 241110Z 02007KT 12/10 A2996 RMK A01 T01200102  RH  091%=      5-min Rain = 0
KGGS 241115Z 02005KT 12/10 A2996 RMK A01 T01200102  RH  091%=      5-min Rain = 0
KGGS 241120Z 02005KT 12/10 A2996 RMK A01 T01200101  RH  091%=      5-min Rain = 0
KGGS 241125Z 01005KT 12/10 A2997 RMK A01 T01200101  RH  091%=      5-min Rain = 0
KGGS 241130Z 01005KT 12/10 A2996 RMK A01 T01190101  RH  092%=      5-min Rain = 0
KGGS 241135Z 01007KT 12/10 A2995 RMK A01 T01190101  RH  092%=      5-min Rain = 0
KGGS 241140Z 01006KT 12/10 A2995 RMK A01 T01190101  RH  092%=      5-min Rain = 0
KGGS 241145Z 02005KT 12/10 A2996 RMK A01 T01190102  RH  092%=      5-min Rain = 0
KGGS 241150Z 02006KT 12/10 A2996 RMK A01 T01190102  RH  093%=      5-min Rain = 0
KGGS 241155Z 02007KT 12/10 A2995 RMK A01 T01180102  RH  093%=      5-min Rain = 0
KGGS 241200Z 01007KT 12/10 A2995 RMK A01 T01180101  RH  093%=      5-min Rain = 0
KGGS 241205Z 01009KT 12/10 A2994 RMK A01 T01170101  RH  093%=      5-min Rain = 0
KGGS 241210Z 01009KT 12/10 A2994 RMK A01 T01170101  RH  093%=      5-min Rain = 0
KGGS 241215Z 02008KT 12/10 A2994 RMK A01 T01160101  RH  093%=      5-min Rain = 0
KGGS 241220Z 02008KT 12/10 A2994 RMK A01 T01160101  RH  093%=      5-min Rain = 0
KGGS 241225Z 02007KT 12/10 A2995 RMK A01 T01160101  RH  093%=      5-min Rain = 0
KGGS 241230Z 03007KT 12/10 A2996 RMK A01 T01170101  RH  093%=      5-min Rain = 0
KGGS 241235Z 02006KT 12/10 A2996 RMK A01 T01170101  RH  093%=      5-min Rain = 0
KGGS 241240Z 02007KT 12/10 A2997 RMK A01 T01170101  RH  093%=      5-min Rain = 0
KGGS 241245Z 01006KT 12/10 A2997 RMK A01 T01170101  RH  093%=      5-min Rain = 0
KGGS 241250Z 01006KT 12/10 A2997 RMK A01 T01180102  RH  093%=      5-min Rain = 0
KGGS 241255Z 01005KT 12/10 A2997 RMK A01 T01180102  RH  093%=      5-min Rain = 0
KGGS 241300Z 01006KT 12/10 A2997 RMK A01 T01180102  RH  093%=      5-min Rain = 0
KGGS 241305Z 01007KT 12/10 A2996 RMK A01 T01190102  RH  093%=      5-min Rain = 0
KGGS 241310Z 01007KT 12/10 A2996 RMK A01 T01190103  RH  093%=      5-min Rain = 0
KGGS 241315Z 01008KT 12/10 A2995 RMK A01 T01190103  RH  093%=      5-min Rain = 0
KGGS 241320Z 02011KT 12/10 A2994 RMK A01 T01190103  RH  093%=      5-min Rain = 0
KGGS 241325Z 02013KT 12/10 A2992 RMK A01 T01190103  RH  093%=      5-min Rain = 0
KGGS 241330Z 02012KT 12/10 A2993 RMK A01 T01190102  RH  092%=      5-min Rain = 0
KGGS 241335Z 02009KT 12/10 A2994 RMK A01 T01200103  RH  092%=      5-min Rain = 0
KGGS 241340Z 01011KT 12/10 A2993 RMK A01 T01210104  RH  092%=      5-min Rain = 0
KGGS 241345Z 01012G17KT 12/10 A2993 RMK A01 T01210103  RH  092%=      5-min Rain = 0
KGGS 241350Z 03009KT 12/10 A2994 RMK A01 T01220103  RH  091%=      5-min Rain = 0
KGGS 241355Z 03009KT 12/10 A2994 RMK A01 T01210099  RH  089%=      5-min Rain = 0
KGGS 241400Z 03008G13KT 12/10 A2994 RMK A01 T01220096  RH  087%=      5-min Rain = 0
KGGS 241405Z 03008KT 12/10 A2995 RMK A01 T01230095  RH  086%=      5-min Rain = 0
KGGS 241410Z 03008KT 12/09 A2996 RMK A01 T01230093  RH  085%=      5-min Rain = 0
KGGS 241415Z 03006KT 12/09 A2997 RMK A01 T01230092  RH  084%=      5-min Rain = 0
KGGS 241420Z 04005KT 12/09 A2998 RMK A01 T01230093  RH  084%=      5-min Rain = 0
KGGS 241425Z 03006KT 12/09 A2997 RMK A01 T01230093  RH  084%=      5-min Rain = 0
KGGS 241430Z 01006KT 12/09 A2997 RMK A01 T01230093  RH  084%=      5-min Rain = 0
KGGS 241435Z 02005KT 12/09 A2997 RMK A01 T01240093  RH  084%=      5-min Rain = 0
KGGS 241440Z 02005KT 12/09 A2997 RMK A01 T01240094  RH  084%=      5-min Rain = 0
KGGS 241445Z 03003KT 13/09 A2997 RMK A01 T01250094  RH  084%=      5-min Rain = 0
KGGS 241450Z 02004KT 13/09 A2998 RMK A01 T01250094  RH  084%=      5-min Rain = 0
KGGS 241455Z 03003KT 13/09 A2998 RMK A01 T01250093  RH  083%=      5-min Rain = 0
KGGS 241500Z 03003KT 13/09 A2998 RMK A01 T01260093  RH  083%=      5-min Rain = 0
KGGS 241505Z 02003KT 13/09 A2998 RMK A01 T01250092  RH  083%=      5-min Rain = 0
KGGS 241510Z 01003KT 13/09 A2999 RMK A01 T01260093  RH  083%=      5-min Rain = 0
KGGS 241515Z 33003KT 13/09 A2999 RMK A01 T01260094  RH  084%=      5-min Rain = 0
KGGS 241520Z 32004KT 13/09 A2999 RMK A01 T01250094  RH  084%=      5-min Rain = 0
KGGS 241525Z 33004KT 13/09 A2999 RMK A01 T01250092  RH  083%=      5-min Rain = 0
KGGS 241530Z 33004KT 13/09 A2999 RMK A01 T01260094  RH  084%=      5-min Rain = 0
KGGS 241535Z 33006KT 13/10 A2999 RMK A01 T01250095  RH  084%=      5-min Rain = 0
KGGS 241540Z 33006KT 12/09 A2999 RMK A01 T01240093  RH  084%=      5-min Rain = 0
KGGS 241545Z 32007KT 12/09 A2998 RMK A01 T01240093  RH  084%=      5-min Rain = 0
KGGS 241550Z 33008KT 12/09 A2998 RMK A01 T01240090  RH  082%=      5-min Rain = 0
KGGS 241555Z 33009KT 12/09 A2997 RMK A01 T01240089  RH  081%=      5-min Rain = 0
KGGS 241600Z 33008KT 13/09 A2997 RMK A01 T01260091  RH  082%=      5-min Rain = 0
KGGS 241605Z 33009KT 13/09 A2997 RMK A01 T01260088  RH  080%=      5-min Rain = 0
KGGS 241610Z 33009KT 13/09 A2997 RMK A01 T01260087  RH  079%=      5-min Rain = 0
KGGS 241615Z 33008KT 13/09 A2997 RMK A01 T01280087  RH  078%=      5-min Rain = 0
KGGS 241620Z 32008KT 13/09 A2997 RMK A01 T01310090  RH  078%=      5-min Rain = 0
KGGS 241625Z 32008KT 13/09 A2997 RMK A01 T01330091  RH  078%=      5-min Rain = 0
KGGS 241630Z 32010KT 13/09 A2998 RMK A01 T01330091  RH  078%=      5-min Rain = 0
KGGS 241635Z 31009KT 14/09 A2997 RMK A01 T01350093  RH  078%=      5-min Rain = 0
KGGS 241640Z 31009KT 14/09 A2997 RMK A01 T01370093  RH  077%=      5-min Rain = 0
KGGS 241645Z 31009KT 14/09 A2997 RMK A01 T01380093  RH  076%=      5-min Rain = 0
KGGS 241650Z 31009KT 14/10 A2997 RMK A01 T01410095  RH  076%=      5-min Rain = 0
KGGS 241655Z 30009KT 14/10 A2997 RMK A01 T01430095  RH  076%=      5-min Rain = 0
KGGS 241700Z 30008KT 14/09 A2997 RMK A01 T01440094  RH  074%=      5-min Rain = 0
KGGS 241705Z 30007KT 15/10 A2998 RMK A01 T01470097  RH  074%=      5-min Rain = 0
KGGS 241710Z 28005G10KT 15/10 A2998 RMK A01 T01480097  RH  074%=      5-min Rain = 0
KGGS 241715Z 29005KT 15/10 A2998 RMK A01 T01490098  RH  074%=      5-min Rain = 0
KGGS 241720Z 30005KT 15/10 A2998 RMK A01 T01500095  RH  072%=      5-min Rain = 0
KGGS 241725Z 33003KT 15/10 A2999 RMK A01 T01510095  RH  071%=      5-min Rain = 0
KGGS 241730Z 29001KT 15/09 A2999 RMK A01 T01520093  RH  070%=      5-min Rain = 0
KGGS 241735Z 27002KT 15/09 A2999 RMK A01 T01540094  RH  070%=      5-min Rain = 0
KGGS 241740Z 23003KT 15/10 A2999 RMK A01 T01540097  RH  071%=      5-min Rain = 0
KGGS 241745Z 29002KT 15/10 A2999 RMK A01 T01540095  RH  070%=      5-min Rain = 0
KGGS 241750Z 27002KT 16/09 A2999 RMK A01 T01550094  RH  069%=      5-min Rain = 0
KGGS 241755Z 30001KT 16/09 A2999 RMK A01 T01550094  RH  069%=      5-min Rain = 0
KGGS 241800Z 15003KT 16/10 A2999 RMK A01 T01570099  RH  070%=      5-min Rain = 0
KGGS 241805Z 16004KT 16/10 A2999 RMK A01 T01570099  RH  071%=      5-min Rain = 0
KGGS 241810Z 14003KT 16/10 A2999 RMK A01 T01560096  RH  070%=      5-min Rain = 0
KGGS 241815Z 14002KT 15/10 A2998 RMK A01 T01540095  RH  070%=      5-min Rain = 0
KGGS 241820Z 15002KT 16/09 A2998 RMK A01 T01550094  RH  069%=      5-min Rain = 0
KGGS 241825Z 13003KT 15/10 A2998 RMK A01 T01540097  RH  071%=      5-min Rain = 0
KGGS 241830Z 14002KT 15/10 A2997 RMK A01 T01540099  RH  072%=      5-min Rain = 0
KGGS 241835Z 15003KT 15/10 A2997 RMK A01 T01540099  RH  072%=      5-min Rain = 0
KGGS 241840Z 14003KT 16/10 A2997 RMK A01 T01550100  RH  072%=      5-min Rain = 0
KGGS 241845Z 16003KT 16/10 A2997 RMK A01 T01560101  RH  072%=      5-min Rain = 0
KGGS 241850Z 15002KT 16/10 A2997 RMK A01 T01560100  RH  072%=      5-min Rain = 0
KGGS 241855Z 13004KT 15/10 A2997 RMK A01 T01540099  RH  072%=      5-min Rain = 0
KGGS 241900Z 11004KT 15/10 A2997 RMK A01 T01530099  RH  073%=      5-min Rain = 0
KGGS 241905Z 13003KT 15/10 A2997 RMK A01 T01520101  RH  074%=      5-min Rain = 0
KGGS 241910Z 13004KT 15/10 A2997 RMK A01 T01520101  RH  074%=      5-min Rain = 0
KGGS 241915Z 14003KT 15/10 A2997 RMK A01 T01510099  RH  073%=      5-min Rain = 0
KGGS 241920Z 15004KT 15/10 A2996 RMK A01 T01520100  RH  074%=      5-min Rain = 0
KGGS 241925Z 17004KT 15/10 A2996 RMK A01 T01520100  RH  074%=      5-min Rain = 0
KGGS 241930Z 17005KT 15/10 A2996 RMK A01 T01530101  RH  073%=      5-min Rain = 0
KGGS 241935Z 17005KT 16/10 A2996 RMK A01 T01550103  RH  074%=      5-min Rain = 0
KGGS 241940Z 16005KT 16/10 A2996 RMK A01 T01570103  RH  073%=      5-min Rain = 0
KGGS 241945Z 17005KT 16/10 A2996 RMK A01 T01580101  RH  071%=      5-min Rain = 0
KGGS 241950Z 17003KT 16/10 A2996 RMK A01 T01590101  RH  071%=      5-min Rain = 0
KGGS 241955Z 15003KT 16/10 A2996 RMK A01 T01590101  RH  071%=      5-min Rain = 0
KGGS 242000Z 15003KT 16/10 A2995 RMK A01 T01630103  RH  070%=      5-min Rain = 0
KGGS 242005Z 14003KT 16/10 A2995 RMK A01 T01610099  RH  069%=      5-min Rain = 0
KGGS 242010Z 18004KT 17/10 A2995 RMK A01 T01650102  RH  068%=      5-min Rain = 0
KGGS 242015Z 19003KT 16/10 A2994 RMK A01 T01640098  RH  067%=      5-min Rain = 0
KGGS 242020Z 18004KT 17/10 A2994 RMK A01 T01660099  RH  067%=      5-min Rain = 0
KGGS 242025Z 20003KT 17/10 A2994 RMK A01 T01670101  RH  067%=      5-min Rain = 0
KGGS 242030Z 20003KT 17/10 A2994 RMK A01 T01650096  RH  066%=      5-min Rain = 0
KGGS 242035Z 19001KT 17/10 A2994 RMK A01 T01670097  RH  065%=      5-min Rain = 0
KGGS 242040Z 27002KT 17/09 A2993 RMK A01 T01660091  RH  063%=      5-min Rain = 0
KGGS 242045Z 33001KT 17/09 A2993 RMK A01 T01660092  RH  063%=      5-min Rain = 0
KGGS 242050Z 29002KT 17/10 A2992 RMK A01 T01680096  RH  064%=      5-min Rain = 0
KGGS 242055Z 33004KT 17/09 A2992 RMK A01 T01680094  RH  064%=      5-min Rain = 0
KGGS 242100Z 35004KT 17/10 A2991 RMK A01 T01670096  RH  065%=      5-min Rain = 0
KGGS 242105Z 36003KT 17/10 A2991 RMK A01 T01680098  RH  065%=      5-min Rain = 0
KGGS 242110Z 03004KT 17/10 A2991 RMK A01 T01690098  RH  065%=      5-min Rain = 0
KGGS 242115Z 03004KT 17/10 A2991 RMK A01 T01680097  RH  065%=      5-min Rain = 0
KGGS 242120Z 03004KT 17/10 A2991 RMK A01 T01690098  RH  065%=      5-min Rain = 0
KGGS 242125Z 01002KT 17/10 A299 RMK A01 T01710099  RH  065%=      5-min Rain = 0
KGGS 242130Z 03002KT 17/10 A299 RMK A01 T01710097  RH  064%=      5-min Rain = 0
KGGS 242135Z 03002KT 17/10 A299 RMK A01 T01700096  RH  064%=      5-min Rain = 0
KGGS 242140Z 01004KT 17/10 A299 RMK A01 T01720097  RH  064%=      5-min Rain = 0
KGGS 242145Z 00004KT 17/10 A2989 RMK A01 T01720097  RH  063%=      5-min Rain = 0
KGGS 242150Z 02004KT 17/10 A2989 RMK A01 T01730098  RH  063%=      5-min Rain = 0
KGGS 242155Z 00003G8KT 17/10 A2989 RMK A01 T01730098  RH  063%=      5-min Rain = 0
KGGS 242200Z 01003KT 17/10 A2989 RMK A01 T01740097  RH  063%=      5-min Rain = 0
KGGS 242205Z 00005KT 18/10 A2989 RMK A01 T01750100  RH  064%=      5-min Rain = 0
KGGS 242210Z 03003KT 17/10 A2988 RMK A01 T01730098  RH  063%=      5-min Rain = 0
KGGS 242215Z 01003KT 17/10 A2988 RMK A01 T01730100  RH  065%=      5-min Rain = 0
KGGS 242220Z 06003KT 17/10 A2989 RMK A01 T01720100  RH  064%=      5-min Rain = 0
KGGS 242225Z 08003KT 17/10 A2989 RMK A01 T01710097  RH  064%=      5-min Rain = 0
KGGS 242230Z 08002KT 17/10 A2988 RMK A01 T01730100  RH  064%=      5-min Rain = 0.01
KGGS 242235Z 06002KT 17/10 A2988 RMK A01 T01740100  RH  064%=      5-min Rain = 0
KGGS 242240Z 12003KT 17/10 A2989 RMK A01 T01730099  RH  064%=      5-min Rain = 0
KGGS 242245Z 14003KT 17/10 A2989 RMK A01 T01730100  RH  064%=      5-min Rain = 0
KGGS 242250Z 16003KT 17/10 A2989 RMK A01 T01740103  RH  065%=      5-min Rain = 0
KGGS 242255Z 15003KT 17/10 A2989 RMK A01 T01730100  RH  064%=      5-min Rain = 0
KGGS 242300Z 14003KT 17/10 A2988 RMK A01 T01730099  RH  064%=      5-min Rain = 0
KGGS 242305Z 13004KT 17/10 A2988 RMK A01 T01720100  RH  065%=      5-min Rain = 0
KGGS 242310Z 13005KT 17/10 A2988 RMK A01 T01720099  RH  064%=      5-min Rain = 0
KGGS 242315Z 15005KT 17/10 A2988 RMK A01 T01720101  RH  065%=      5-min Rain = 0
KGGS 242320Z 15005KT 17/10 A2988 RMK A01 T01720101  RH  065%=      5-min Rain = 0
KGGS 242325Z 15004KT 17/10 A2988 RMK A01 T01720101  RH  065%=      5-min Rain = 0
KGGS 242330Z 15004KT 17/10 A2988 RMK A01 T01720101  RH  065%=      5-min Rain = 0
KGGS 242335Z 17004KT 17/10 A2988 RMK A01 T01740101  RH  064%=      5-min Rain = 0
KGGS 242340Z 16004KT 18/10 A2988 RMK A01 T01750101  RH  064%=      5-min Rain = 0
KGGS 242345Z 17005KT 17/10 A2988 RMK A01 T01740102  RH  065%=      5-min Rain = 0
KGGS 242350Z 17005KT 17/10 A2988 RMK A01 T01720103  RH  066%=      5-min Rain = 0
KGGS 242355Z 17005KT 17/10 A2988 RMK A01 T01730104  RH  066%=      5-min Rain = 0
KGGS 250000Z 17006KT 17/10 A2988 RMK A01 T01720100  RH  064%=      5-min Rain = 0
KGGS 250005Z 17006KT 17/10 A2988 RMK A01 T01720103  RH  066%=      5-min Rain = 0
KGGS 250010Z 16008KT 17/10 A2988 RMK A01 T01690102  RH  067%=      5-min Rain = 0
KGGS 250015Z 17008KT 17/10 A2988 RMK A01 T01670103  RH  068%=      5-min Rain = 0
KGGS 250020Z 16007KT 17/10 A2988 RMK A01 T01650102  RH  068%=      5-min Rain = 0
KGGS 250025Z 17007KT 17/10 A2988 RMK A01 T01650102  RH  069%=      5-min Rain = 0
KGGS 250030Z 17006KT 17/10 A2988 RMK A01 T01650103  RH  069%=      5-min Rain = 0
KGGS 250035Z 17006KT 17/10 A2988 RMK A01 T01650104  RH  070%=      5-min Rain = 0
KGGS 250040Z 17007KT 16/10 A2988 RMK A01 T01620102  RH  070%=      5-min Rain = 0
KGGS 250045Z 17008KT 16/10 A2988 RMK A01 T01600101  RH  070%=      5-min Rain = 0
KGGS 250050Z 17007KT 16/10 A2988 RMK A01 T01600101  RH  070%=      5-min Rain = 0
KGGS 250055Z 18005KT 16/10 A2988 RMK A01 T01590103  RH  071%=      5-min Rain = 0
KGGS 250100Z 18006KT 16/10 A2988 RMK A01 T01580103  RH  072%=      5-min Rain = 0
KGGS 250105Z 17006KT 16/10 A2988 RMK A01 T01560102  RH  072%=      5-min Rain = 0
KGGS 250110Z 17006KT 15/10 A2988 RMK A01 T01530102  RH  074%=      5-min Rain = 0
KGGS 250115Z 17006KT 15/10 A2988 RMK A01 T01510102  RH  075%=      5-min Rain = 0
KGGS 250120Z 18005KT 15/10 A2988 RMK A01 T01480102  RH  076%=      5-min Rain = 0
KGGS 250125Z 18005KT 15/10 A2988 RMK A01 T01450102  RH  078%=      5-min Rain = 0
KGGS 250130Z 18005KT 14/10 A2988 RMK A01 T01420102  RH  079%=      5-min Rain = 0
KGGS 250135Z 18005KT 14/10 A2988 RMK A01 T01390101  RH  080%=      5-min Rain = 0
KGGS 250140Z 18005KT 14/10 A2988 RMK A01 T01370101  RH  081%=      5-min Rain = 0
KGGS 250145Z 17004KT 14/10 A2988 RMK A01 T01350101  RH  082%=      5-min Rain = 0
KGGS 250150Z 17004KT 13/10 A2989 RMK A01 T01330100  RH  083%=      5-min Rain = 0
KGGS 250155Z 17005KT 13/10 A2989 RMK A01 T01310100  RH  084%=      5-min Rain = 0
KGGS 250200Z 18006KT 13/10 A2989 RMK A01 T01300101  RH  085%=      5-min Rain = 0
KGGS 250205Z 18006KT 13/10 A2989 RMK A01 T01300102  RH  086%=      5-min Rain = 0
KGGS 250210Z 18006KT 13/10 A2989 RMK A01 T01300102  RH  086%=      5-min Rain = 0
KGGS 250215Z 19006KT 13/10 A299 RMK A01 T01290101  RH  086%=      5-min Rain = 0
KGGS 250220Z 19006KT 13/10 A299 RMK A01 T01270100  RH  087%=      5-min Rain = 0
KGGS 250225Z 20007KT 13/10 A299 RMK A01 T01260101  RH  087%=      5-min Rain = 0
KGGS 250230Z 20007KT 13/10 A299 RMK A01 T01260101  RH  087%=      5-min Rain = 0
KGGS 250235Z 20007KT 13/10 A299 RMK A01 T01260101  RH  088%=      5-min Rain = 0
KGGS 250240Z 19006KT 12/10 A299 RMK A01 T01240100  RH  088%=      5-min Rain = 0
KGGS 250245Z 20006KT 12/10 A299 RMK A01 T01220098  RH  088%=      5-min Rain = 0
KGGS 250250Z 20007KT 12/10 A299 RMK A01 T01220100  RH  089%=      5-min Rain = 0
KGGS 250255Z 21008KT 12/10 A299 RMK A01 T01240102  RH  089%=      5-min Rain = 0
KGGS 250300Z 21008KT 13/10 A299 RMK A01 T01260103  RH  089%=      5-min Rain = 0
KGGS 250305Z 21007KT 13/10 A299 RMK A01 T01260102  RH  088%=      5-min Rain = 0
KGGS 250310Z 20007KT 12/10 A299 RMK A01 T01240100  RH  089%=      5-min Rain = 0
KGGS 250315Z 21008KT 12/10 A299 RMK A01 T01220100  RH  089%=      5-min Rain = 0
KGGS 250320Z 21007KT 12/10 A2991 RMK A01 T01220099  RH  089%=      5-min Rain = 0
KGGS 250325Z 21006KT 12/10 A2991 RMK A01 T01200098  RH  089%=      5-min Rain = 0
KGGS 250330Z 21007KT 12/10 A2991 RMK A01 T01200099  RH  090%=      5-min Rain = 0
KGGS 250335Z 21007KT 12/10 A2991 RMK A01 T01200099  RH  090%=      5-min Rain = 0
KGGS 250340Z 21007KT 12/10 A2991 RMK A01 T01190098  RH  090%=      5-min Rain = 0
KGGS 250345Z 21007KT 12/10 A2991 RMK A01 T01170097  RH  090%=      5-min Rain = 0
KGGS 250350Z 22007KT 12/10 A2991 RMK A01 T01160097  RH  091%=      5-min Rain = 0
KGGS 250355Z 22006KT 12/10 A2991 RMK A01 T01160097  RH  091%=      5-min Rain = 0
KGGS 250400Z 23007KT 12/10 A2991 RMK A01 T01200101  RH  091%=      5-min Rain = 0
KGGS 250405Z 23007KT 12/10 A2991 RMK A01 T01220102  RH  091%=      5-min Rain = 0
KGGS 250410Z 23008KT 12/10 A2991 RMK A01 T01220102  RH  091%=      5-min Rain = 0
KGGS 250415Z 23008KT 12/10 A2991 RMK A01 T01220101  RH  090%=      5-min Rain = 0
KGGS 250420Z 23008KT 12/10 A2991 RMK A01 T01210101  RH  090%=      5-min Rain = 0
KGGS 250425Z 24009KT 12/10 A2991 RMK A01 T01210101  RH  091%=      5-min Rain = 0
KGGS 250430Z 23009KT 12/10 A2991 RMK A01 T01210101  RH  091%=      5-min Rain = 0
KGGS 250435Z 23009KT 12/10 A2991 RMK A01 T01210102  RH  091%=      5-min Rain = 0
KGGS 250440Z 23009KT 12/10 A2991 RMK A01 T01210101  RH  091%=      5-min Rain = 0
KGGS 250445Z 23009KT 12/10 A2991 RMK A01 T01210101  RH  091%=      5-min Rain = 0
KGGS 250450Z 24009KT 12/10 A2991 RMK A01 T01200101  RH  091%=      5-min Rain = 0
KGGS 250455Z 24009KT 12/10 A2991 RMK A01 T01200102  RH  091%=      5-min Rain = 0

Page generated in 0.0195 seconds.